sensor_id;sensor_type;location;lat;lon;timestamp;temperature;humidity
1812;DHT22;904;47.814;11.134;2024-03-22T00:01:22;9.30;89.40
1812;DHT22;904;47.814;11.134;2024-03-22T00:03:48;9.20;89.00
1812;DHT22;904;47.814;11.134;2024-03-22T00:06:21;9.20;89.60
1812;DHT22;904;47.814;11.134;2024-03-22T00:08:47;9.20;90.00
1812;DHT22;904;47.814;11.134;2024-03-22T00:11:18;9.20;89.90
1812;DHT22;904;47.814;11.134;2024-03-22T00:14:07;9.10;89.70
1812;DHT22;904;47.814;11.134;2024-03-22T00:16:36;9.10;89.60
1812;DHT22;904;47.814;11.134;2024-03-22T00:19:05;9.00;88.50
1812;DHT22;904;47.814;11.134;2024-03-22T00:25:12;9.00;89.10
1812;DHT22;904;47.814;11.134;2024-03-22T00:27:46;9.00;89.70
1812;DHT22;904;47.814;11.134;2024-03-22T00:30:18;9.00;90.20
1812;DHT22;904;47.814;11.134;2024-03-22T00:32:47;9.00;90.30
1812;DHT22;904;47.814;11.134;2024-03-22T00:41:52;8.90;90.00
1812;DHT22;904;47.814;11.134;2024-03-22T00:50:54;8.80;88.90
1812;DHT22;904;47.814;11.134;2024-03-22T00:56:44;8.80;89.50
1812;DHT22;904;47.814;11.134;2024-03-22T01:02:36;8.80;90.40
1812;DHT22;904;47.814;11.134;2024-03-22T01:05:04;8.90;90.70
1812;DHT22;904;47.814;11.134;2024-03-22T01:18:22;8.70;89.00
1812;DHT22;904;47.814;11.134;2024-03-22T01:24:13;8.70;89.20
1812;DHT22;904;47.814;11.134;2024-03-22T01:30:04;8.70;90.50
1812;DHT22;904;47.814;11.134;2024-03-22T01:35:54;8.80;91.00
1812;DHT22;904;47.814;11.134;2024-03-22T01:38:24;8.90;90.50
1812;DHT22;904;47.814;11.134;2024-03-22T01:40:52;8.90;90.40
1812;DHT22;904;47.814;11.134;2024-03-22T01:43:19;8.90;90.30
1812;DHT22;904;47.814;11.134;2024-03-22T01:55:52;8.80;91.00
1812;DHT22;904;47.814;11.134;2024-03-22T02:05:30;8.90;91.40
1812;DHT22;904;47.814;11.134;2024-03-22T02:07:59;8.90;91.20
1812;DHT22;904;47.814;11.134;2024-03-22T02:21:04;8.90;91.50
1812;DHT22;904;47.814;11.134;2024-03-22T02:26:54;8.90;91.20
1812;DHT22;904;47.814;11.134;2024-03-22T02:29:35;8.80;91.70
1812;DHT22;904;47.814;11.134;2024-03-22T02:32:03;8.90;91.90
1812;DHT22;904;47.814;11.134;2024-03-22T02:34:36;9.10;91.40
1812;DHT22;904;47.814;11.134;2024-03-22T02:37:27;9.10;91.10
1812;DHT22;904;47.814;11.134;2024-03-22T02:43:17;9.00;91.20
1812;DHT22;904;47.814;11.134;2024-03-22T02:49:08;8.90;91.50
1812;DHT22;904;47.814;11.134;2024-03-22T02:54:57;8.80;91.50
1812;DHT22;904;47.814;11.134;2024-03-22T03:00:56;8.60;90.70
1812;DHT22;904;47.814;11.134;2024-03-22T03:03:24;8.50;90.20
1812;DHT22;904;47.814;11.134;2024-03-22T03:05:50;8.50;90.40
1812;DHT22;904;47.814;11.134;2024-03-22T03:11:40;8.50;91.00
1812;DHT22;904;47.814;11.134;2024-03-22T03:24:49;8.50;92.50
1812;DHT22;904;47.814;11.134;2024-03-22T03:30:39;8.50;91.50
1812;DHT22;904;47.814;11.134;2024-03-22T03:36:27;8.40;91.90
1812;DHT22;904;47.814;11.134;2024-03-22T03:42:20;8.50;92.00
1812;DHT22;904;47.814;11.134;2024-03-22T03:48:09;8.40;92.70
1812;DHT22;904;47.814;11.134;2024-03-22T03:53:57;8.40;93.00
1812;DHT22;904;47.814;11.134;2024-03-22T03:56:24;8.40;93.00
1812;DHT22;904;47.814;11.134;2024-03-22T04:02:14;8.50;92.50
1812;DHT22;904;47.814;11.134;2024-03-22T04:08:03;8.50;92.30
1812;DHT22;904;47.814;11.134;2024-03-22T04:10:32;8.50;92.20
1812;DHT22;904;47.814;11.134;2024-03-22T04:16:20;8.40;90.80
1812;DHT22;904;47.814;11.134;2024-03-22T04:26:10;8.20;89.00
1812;DHT22;904;47.814;11.134;2024-03-22T04:28:38;8.10;90.00
1812;DHT22;904;47.814;11.134;2024-03-22T04:31:06;8.10;90.30
1812;DHT22;904;47.814;11.134;2024-03-22T04:36:55;8.00;90.50
1812;DHT22;904;47.814;11.134;2024-03-22T04:39:33;7.90;91.30
1812;DHT22;904;47.814;11.134;2024-03-22T04:45:23;7.80;91.90
1812;DHT22;904;47.814;11.134;2024-03-22T04:51:12;7.80;92.80
1812;DHT22;904;47.814;11.134;2024-03-22T04:53:39;7.80;92.80
1812;DHT22;904;47.814;11.134;2024-03-22T04:56:06;7.70;91.80
1812;DHT22;904;47.814;11.134;2024-03-22T05:02:10;7.70;91.10
1812;DHT22;904;47.814;11.134;2024-03-22T05:04:37;7.60;90.50
1812;DHT22;904;47.814;11.134;2024-03-22T05:07:03;7.60;90.40
1812;DHT22;904;47.814;11.134;2024-03-22T05:09:32;7.50;90.10
1812;DHT22;904;47.814;11.134;2024-03-22T05:12:00;7.50;89.60
1812;DHT22;904;47.814;11.134;2024-03-22T05:14:39;7.50;89.00
1812;DHT22;904;47.814;11.134;2024-03-22T05:17:52;7.50;89.00
1812;DHT22;904;47.814;11.134;2024-03-22T05:20:21;7.50;90.20
1812;DHT22;904;47.814;11.134;2024-03-22T05:32:45;7.40;91.40
1812;DHT22;904;47.814;11.134;2024-03-22T05:38:42;7.50;91.80
1812;DHT22;904;47.814;11.134;2024-03-22T05:41:11;7.50;92.30
1812;DHT22;904;47.814;11.134;2024-03-22T05:43:37;7.50;92.50
1812;DHT22;904;47.814;11.134;2024-03-22T05:46:06;7.50;92.80
1812;DHT22;904;47.814;11.134;2024-03-22T05:51:54;7.70;92.60
1812;DHT22;904;47.814;11.134;2024-03-22T06:01:20;7.80;93.30
1812;DHT22;904;47.814;11.134;2024-03-22T06:03:47;7.80;93.50
1812;DHT22;904;47.814;11.134;2024-03-22T06:09:05;8.00;93.50
1812;DHT22;904;47.814;11.134;2024-03-22T06:11:37;8.10;93.30
1812;DHT22;904;47.814;11.134;2024-03-22T06:17:27;8.20;93.00
1812;DHT22;904;47.814;11.134;2024-03-22T06:30:36;8.40;91.10
1812;DHT22;904;47.814;11.134;2024-03-22T06:33:06;8.50;91.80
1812;DHT22;904;47.814;11.134;2024-03-22T06:35:34;8.60;92.30
1812;DHT22;904;47.814;11.134;2024-03-22T06:41:36;8.80;92.10
1812;DHT22;904;47.814;11.134;2024-03-22T06:44:37;8.90;91.60
1812;DHT22;904;47.814;11.134;2024-03-22T06:47:03;8.80;91.90
1812;DHT22;904;47.814;11.134;2024-03-22T06:49:35;8.80;92.20
1812;DHT22;904;47.814;11.134;2024-03-22T06:52:01;9.00;92.30
1812;DHT22;904;47.814;11.134;2024-03-22T06:54:30;9.00;92.30
1812;DHT22;904;47.814;11.134;2024-03-22T07:00:18;9.40;93.00
1812;DHT22;904;47.814;11.134;2024-03-22T07:02:45;9.80;93.10
1812;DHT22;904;47.814;11.134;2024-03-22T07:05:42;10.00;92.50
1812;DHT22;904;47.814;11.134;2024-03-22T07:08:09;10.40;92.50
1812;DHT22;904;47.814;11.134;2024-03-22T07:10:39;10.60;91.90
1812;DHT22;904;47.814;11.134;2024-03-22T07:13:06;10.90;91.90
1812;DHT22;904;47.814;11.134;2024-03-22T07:15:32;11.40;90.70
1812;DHT22;904;47.814;11.134;2024-03-22T07:17:59;11.80;90.50
1812;DHT22;904;47.814;11.134;2024-03-22T07:20:25;12.20;90.00
1812;DHT22;904;47.814;11.134;2024-03-22T07:22:54;12.70;88.60
1812;DHT22;904;47.814;11.134;2024-03-22T07:25:23;13.10;85.80
1812;DHT22;904;47.814;11.134;2024-03-22T07:27:50;13.70;82.00
1812;DHT22;904;47.814;11.134;2024-03-22T07:30:18;14.20;83.10
1812;DHT22;904;47.814;11.134;2024-03-22T07:32:47;14.80;76.40
1812;DHT22;904;47.814;11.134;2024-03-22T07:35:13;15.50;78.70
1812;DHT22;904;47.814;11.134;2024-03-22T07:37:40;16.30;73.20
1812;DHT22;904;47.814;11.134;2024-03-22T07:40:08;17.10;68.60
1812;DHT22;904;47.814;11.134;2024-03-22T07:42:35;17.80;67.00
1812;DHT22;904;47.814;11.134;2024-03-22T07:45:23;18.60;60.80
1812;DHT22;904;47.814;11.134;2024-03-22T07:47:53;19.50;57.50
1812;DHT22;904;47.814;11.134;2024-03-22T07:50:19;20.20;57.80
1812;DHT22;904;47.814;11.134;2024-03-22T07:52:46;20.90;54.00
1812;DHT22;904;47.814;11.134;2024-03-22T07:55:13;21.60;51.90
1812;DHT22;904;47.814;11.134;2024-03-22T07:57:40;22.20;47.90
1812;DHT22;904;47.814;11.134;2024-03-22T08:00:07;22.40;46.20
1812;DHT22;904;47.814;11.134;2024-03-22T08:02:34;22.80;45.90
1812;DHT22;904;47.814;11.134;2024-03-22T08:05:00;23.40;44.20
1812;DHT22;904;47.814;11.134;2024-03-22T08:07:27;23.80;42.50
1812;DHT22;904;47.814;11.134;2024-03-22T08:09:53;24.20;42.20
1812;DHT22;904;47.814;11.134;2024-03-22T08:12:23;24.70;42.30
1812;DHT22;904;47.814;11.134;2024-03-22T08:14:50;25.10;40.70
1812;DHT22;904;47.814;11.134;2024-03-22T08:17:17;25.60;38.90
1812;DHT22;904;47.814;11.134;2024-03-22T08:19:43;26.00;38.40
1812;DHT22;904;47.814;11.134;2024-03-22T08:22:10;26.40;36.30
1812;DHT22;904;47.814;11.134;2024-03-22T08:24:36;26.80;36.30
1812;DHT22;904;47.814;11.134;2024-03-22T08:27:04;27.00;33.70
1812;DHT22;904;47.814;11.134;2024-03-22T08:29:31;26.90;31.90
1812;DHT22;904;47.814;11.134;2024-03-22T08:31:58;26.80;32.10
1812;DHT22;904;47.814;11.134;2024-03-22T08:34:24;26.90;33.00
1812;DHT22;904;47.814;11.134;2024-03-22T08:36:51;27.20;32.00
1812;DHT22;904;47.814;11.134;2024-03-22T08:39:21;27.40;32.90
1812;DHT22;904;47.814;11.134;2024-03-22T08:41:50;28.00;32.00
1812;DHT22;904;47.814;11.134;2024-03-22T08:44:16;28.30;31.40
1812;DHT22;904;47.814;11.134;2024-03-22T08:46:45;28.60;31.00
1812;DHT22;904;47.814;11.134;2024-03-22T08:49:11;28.90;29.10
1812;DHT22;904;47.814;11.134;2024-03-22T08:51:39;29.20;29.10
1812;DHT22;904;47.814;11.134;2024-03-22T08:54:05;29.50;27.70
1812;DHT22;904;47.814;11.134;2024-03-22T08:56:32;29.80;26.40
1812;DHT22;904;47.814;11.134;2024-03-22T08:58:57;30.00;26.40
1812;DHT22;904;47.814;11.134;2024-03-22T09:01:24;30.20;26.30
1812;DHT22;904;47.814;11.134;2024-03-22T09:03:52;30.40;26.10
1812;DHT22;904;47.814;11.134;2024-03-22T09:06:19;30.40;24.70
1812;DHT22;904;47.814;11.134;2024-03-22T09:08:45;30.40;26.40
1812;DHT22;904;47.814;11.134;2024-03-22T09:11:12;30.70;25.60
1812;DHT22;904;47.814;11.134;2024-03-22T09:13:38;31.00;24.40
1812;DHT22;904;47.814;11.134;2024-03-22T09:16:05;31.30;23.70
1812;DHT22;904;47.814;11.134;2024-03-22T09:18:31;31.40;24.10
1812;DHT22;904;47.814;11.134;2024-03-22T09:21:00;31.70;23.50
1812;DHT22;904;47.814;11.134;2024-03-22T09:23:25;31.90;23.50
1812;DHT22;904;47.814;11.134;2024-03-22T09:25:53;32.20;22.30
1812;DHT22;904;47.814;11.134;2024-03-22T09:28:19;32.30;22.50
1812;DHT22;904;47.814;11.134;2024-03-22T09:30:46;32.40;22.40
1812;DHT22;904;47.814;11.134;2024-03-22T09:33:13;32.60;21.90
1812;DHT22;904;47.814;11.134;2024-03-22T09:35:40;32.70;21.50
1812;DHT22;904;47.814;11.134;2024-03-22T09:38:07;32.50;21.00
1812;DHT22;904;47.814;11.134;2024-03-22T09:40:34;32.30;21.10
1812;DHT22;904;47.814;11.134;2024-03-22T09:43:04;32.30;21.90
1812;DHT22;904;47.814;11.134;2024-03-22T09:45:34;32.50;22.20
1812;DHT22;904;47.814;11.134;2024-03-22T09:48:00;32.70;22.90
1812;DHT22;904;47.814;11.134;2024-03-22T09:50:28;33.10;23.00
1812;DHT22;904;47.814;11.134;2024-03-22T09:52:56;33.50;22.60
1812;DHT22;904;47.814;11.134;2024-03-22T09:55:24;33.90;22.70
1812;DHT22;904;47.814;11.134;2024-03-22T09:57:51;34.20;21.90
1812;DHT22;904;47.814;11.134;2024-03-22T10:00:19;34.40;20.90
1812;DHT22;904;47.814;11.134;2024-03-22T10:02:49;34.50;21.10
1812;DHT22;904;47.814;11.134;2024-03-22T10:05:16;34.80;22.00
1812;DHT22;904;47.814;11.134;2024-03-22T10:07:43;35.10;21.60
1812;DHT22;904;47.814;11.134;2024-03-22T10:10:10;35.30;20.50
1812;DHT22;904;47.814;11.134;2024-03-22T10:12:39;35.40;19.60
1812;DHT22;904;47.814;11.134;2024-03-22T10:15:06;35.40;19.60
1812;DHT22;904;47.814;11.134;2024-03-22T10:17:35;35.60;20.20
1812;DHT22;904;47.814;11.134;2024-03-22T10:20:02;35.70;20.40
1812;DHT22;904;47.814;11.134;2024-03-22T10:22:28;35.80;21.20
1812;DHT22;904;47.814;11.134;2024-03-22T10:24:56;35.90;20.40
1812;DHT22;904;47.814;11.134;2024-03-22T10:27:30;35.60;19.00
1812;DHT22;904;47.814;11.134;2024-03-22T10:29:59;34.90;18.30
1812;DHT22;904;47.814;11.134;2024-03-22T10:32:26;34.20;19.30
1812;DHT22;904;47.814;11.134;2024-03-22T10:34:53;33.60;21.10
1812;DHT22;904;47.814;11.134;2024-03-22T10:37:19;33.10;20.50
1812;DHT22;904;47.814;11.134;2024-03-22T10:39:50;32.50;20.40
1812;DHT22;904;47.814;11.134;2024-03-22T10:42:18;31.90;21.00
1812;DHT22;904;47.814;11.134;2024-03-22T10:44:45;31.50;22.20
1812;DHT22;904;47.814;11.134;2024-03-22T10:47:15;31.60;21.60
1812;DHT22;904;47.814;11.134;2024-03-22T10:49:43;31.60;21.50
1812;DHT22;904;47.814;11.134;2024-03-22T10:52:12;31.80;21.70
1812;DHT22;904;47.814;11.134;2024-03-22T10:54:43;32.20;21.00
1812;DHT22;904;47.814;11.134;2024-03-22T10:57:12;32.50;21.10
1812;DHT22;904;47.814;11.134;2024-03-22T10:59:41;33.00;21.80
1812;DHT22;904;47.814;11.134;2024-03-22T11:02:10;33.60;20.10
1812;DHT22;904;47.814;11.134;2024-03-22T11:04:38;33.90;19.30
1812;DHT22;904;47.814;11.134;2024-03-22T11:07:05;34.30;19.70
1812;DHT22;904;47.814;11.134;2024-03-22T11:09:33;34.70;18.30
1812;DHT22;904;47.814;11.134;2024-03-22T11:11:59;34.90;19.30
1812;DHT22;904;47.814;11.134;2024-03-22T11:14:26;35.00;18.80
1812;DHT22;904;47.814;11.134;2024-03-22T11:16:52;35.00;18.70
1812;DHT22;904;47.814;11.134;2024-03-22T11:19:20;35.20;19.00
1812;DHT22;904;47.814;11.134;2024-03-22T11:21:47;35.20;17.60
1812;DHT22;904;47.814;11.134;2024-03-22T11:24:15;35.30;18.60
1812;DHT22;904;47.814;11.134;2024-03-22T11:26:41;35.50;18.60
1812;DHT22;904;47.814;11.134;2024-03-22T11:29:09;35.50;17.00
1812;DHT22;904;47.814;11.134;2024-03-22T11:31:35;35.40;18.10
1812;DHT22;904;47.814;11.134;2024-03-22T11:34:02;35.40;16.30
1812;DHT22;904;47.814;11.134;2024-03-22T11:36:29;35.30;17.40
1812;DHT22;904;47.814;11.134;2024-03-22T11:38:57;35.30;17.20
1812;DHT22;904;47.814;11.134;2024-03-22T11:41:27;35.30;16.00
1812;DHT22;904;47.814;11.134;2024-03-22T11:43:55;35.30;15.30
1812;DHT22;904;47.814;11.134;2024-03-22T11:46:21;35.20;15.70
1812;DHT22;904;47.814;11.134;2024-03-22T11:48:51;35.20;16.60
1812;DHT22;904;47.814;11.134;2024-03-22T11:51:17;35.10;15.90
1812;DHT22;904;47.814;11.134;2024-03-22T11:53:49;35.10;15.90
1812;DHT22;904;47.814;11.134;2024-03-22T11:56:19;35.00;15.20
1812;DHT22;904;47.814;11.134;2024-03-22T11:58:47;34.70;15.20
1812;DHT22;904;47.814;11.134;2024-03-22T12:01:14;34.30;14.80
1812;DHT22;904;47.814;11.134;2024-03-22T12:03:43;33.80;14.80
1812;DHT22;904;47.814;11.134;2024-03-22T12:06:10;33.40;16.10
1812;DHT22;904;47.814;11.134;2024-03-22T12:08:37;33.30;17.00
1812;DHT22;904;47.814;11.134;2024-03-22T12:11:07;33.40;16.10
1812;DHT22;904;47.814;11.134;2024-03-22T12:13:35;33.30;16.30
1812;DHT22;904;47.814;11.134;2024-03-22T12:16:03;33.30;16.50
1812;DHT22;904;47.814;11.134;2024-03-22T12:18:30;33.30;16.10
1812;DHT22;904;47.814;11.134;2024-03-22T12:20:56;33.40;16.60
1812;DHT22;904;47.814;11.134;2024-03-22T12:23:23;33.30;15.50
1812;DHT22;904;47.814;11.134;2024-03-22T12:25:50;32.80;14.90
1812;DHT22;904;47.814;11.134;2024-03-22T12:28:17;32.50;16.70
1812;DHT22;904;47.814;11.134;2024-03-22T12:30:44;32.40;18.00
1812;DHT22;904;47.814;11.134;2024-03-22T12:33:11;32.40;18.30
1812;DHT22;904;47.814;11.134;2024-03-22T12:35:39;32.40;17.30
1812;DHT22;904;47.814;11.134;2024-03-22T12:38:06;32.40;16.90
1812;DHT22;904;47.814;11.134;2024-03-22T12:40:33;32.30;18.00
1812;DHT22;904;47.814;11.134;2024-03-22T12:43:00;32.30;19.10
1812;DHT22;904;47.814;11.134;2024-03-22T12:45:26;32.20;18.70
1812;DHT22;904;47.814;11.134;2024-03-22T12:47:54;32.10;19.30
1812;DHT22;904;47.814;11.134;2024-03-22T12:50:21;31.90;19.60
1812;DHT22;904;47.814;11.134;2024-03-22T12:52:48;31.70;19.30
1812;DHT22;904;47.814;11.134;2024-03-22T12:55:15;31.50;19.70
1812;DHT22;904;47.814;11.134;2024-03-22T12:57:42;31.20;19.70
1812;DHT22;904;47.814;11.134;2024-03-22T13:00:16;31.00;19.40
1812;DHT22;904;47.814;11.134;2024-03-22T13:02:46;30.60;19.50
1812;DHT22;904;47.814;11.134;2024-03-22T13:05:17;30.20;20.10
1812;DHT22;904;47.814;11.134;2024-03-22T13:07:44;29.90;20.50
1812;DHT22;904;47.814;11.134;2024-03-22T13:10:10;29.70;21.20
1812;DHT22;904;47.814;11.134;2024-03-22T13:12:37;29.40;21.50
1812;DHT22;904;47.814;11.134;2024-03-22T13:15:04;29.20;22.30
1812;DHT22;904;47.814;11.134;2024-03-22T13:17:39;28.90;22.50
1812;DHT22;904;47.814;11.134;2024-03-22T13:20:06;28.70;22.60
1812;DHT22;904;47.814;11.134;2024-03-22T13:22:38;28.40;23.00
1812;DHT22;904;47.814;11.134;2024-03-22T13:25:04;28.10;21.70
1812;DHT22;904;47.814;11.134;2024-03-22T13:27:32;27.90;23.10
1812;DHT22;904;47.814;11.134;2024-03-22T13:29:59;27.70;23.90
1812;DHT22;904;47.814;11.134;2024-03-22T13:32:26;27.50;24.50
1812;DHT22;904;47.814;11.134;2024-03-22T13:34:58;27.30;24.40
1812;DHT22;904;47.814;11.134;2024-03-22T13:37:25;27.20;24.70
1812;DHT22;904;47.814;11.134;2024-03-22T13:39:52;27.10;24.30
1812;DHT22;904;47.814;11.134;2024-03-22T13:42:20;27.00;24.40
1812;DHT22;904;47.814;11.134;2024-03-22T13:44:46;26.90;24.80
1812;DHT22;904;47.814;11.134;2024-03-22T13:47:13;26.70;25.00
1812;DHT22;904;47.814;11.134;2024-03-22T13:49:39;26.50;25.20
1812;DHT22;904;47.814;11.134;2024-03-22T13:52:07;26.40;24.70
1812;DHT22;904;47.814;11.134;2024-03-22T13:54:33;26.30;24.60
1812;DHT22;904;47.814;11.134;2024-03-22T13:57:01;26.20;24.40
1812;DHT22;904;47.814;11.134;2024-03-22T13:59:28;26.00;24.20
1812;DHT22;904;47.814;11.134;2024-03-22T14:01:55;25.90;23.70
1812;DHT22;904;47.814;11.134;2024-03-22T14:04:22;25.80;24.00
1812;DHT22;904;47.814;11.134;2024-03-22T14:06:49;25.70;23.80
1812;DHT22;904;47.814;11.134;2024-03-22T14:09:15;25.60;24.00
1812;DHT22;904;47.814;11.134;2024-03-22T14:11:42;25.40;25.00
1812;DHT22;904;47.814;11.134;2024-03-22T14:14:10;25.20;25.30
1812;DHT22;904;47.814;11.134;2024-03-22T14:16:37;25.10;25.80
1812;DHT22;904;47.814;11.134;2024-03-22T14:19:03;25.00;25.30
1812;DHT22;904;47.814;11.134;2024-03-22T14:21:30;25.00;25.30
1812;DHT22;904;47.814;11.134;2024-03-22T14:23:56;24.90;24.90
1812;DHT22;904;47.814;11.134;2024-03-22T14:26:23;24.80;24.90
1812;DHT22;904;47.814;11.134;2024-03-22T14:28:49;24.70;24.90
1812;DHT22;904;47.814;11.134;2024-03-22T14:31:19;24.70;24.10
1812;DHT22;904;47.814;11.134;2024-03-22T14:33:45;24.50;24.70
1812;DHT22;904;47.814;11.134;2024-03-22T14:36:13;24.40;24.30
1812;DHT22;904;47.814;11.134;2024-03-22T14:38:40;24.30;25.10
1812;DHT22;904;47.814;11.134;2024-03-22T14:41:08;24.20;25.20
1812;DHT22;904;47.814;11.134;2024-03-22T14:43:34;24.10;25.50
1812;DHT22;904;47.814;11.134;2024-03-22T14:46:01;24.00;25.40
1812;DHT22;904;47.814;11.134;2024-03-22T14:48:30;23.90;25.70
1812;DHT22;904;47.814;11.134;2024-03-22T14:50:57;23.80;25.80
1812;DHT22;904;47.814;11.134;2024-03-22T14:53:24;23.70;25.50
1812;DHT22;904;47.814;11.134;2024-03-22T14:55:55;23.70;25.10
1812;DHT22;904;47.814;11.134;2024-03-22T14:58:23;23.50;25.00
1812;DHT22;904;47.814;11.134;2024-03-22T15:00:53;23.40;25.10
1812;DHT22;904;47.814;11.134;2024-03-22T15:03:18;23.30;25.50
1812;DHT22;904;47.814;11.134;2024-03-22T15:05:47;23.30;26.10
1812;DHT22;904;47.814;11.134;2024-03-22T15:08:13;23.10;26.20
1812;DHT22;904;47.814;11.134;2024-03-22T15:10:40;23.10;26.60
1812;DHT22;904;47.814;11.134;2024-03-22T15:13:06;23.00;27.60
1812;DHT22;904;47.814;11.134;2024-03-22T15:15:34;22.90;27.10
1812;DHT22;904;47.814;11.134;2024-03-22T15:18:00;22.80;26.80
1812;DHT22;904;47.814;11.134;2024-03-22T15:20:32;22.80;26.50
1812;DHT22;904;47.814;11.134;2024-03-22T15:22:59;22.70;27.20
1812;DHT22;904;47.814;11.134;2024-03-22T15:25:26;22.60;27.10
1812;DHT22;904;47.814;11.134;2024-03-22T15:27:52;22.50;26.50
1812;DHT22;904;47.814;11.134;2024-03-22T15:30:20;22.50;26.60
1812;DHT22;904;47.814;11.134;2024-03-22T15:32:46;22.40;26.90
1812;DHT22;904;47.814;11.134;2024-03-22T15:35:13;22.30;27.20
1812;DHT22;904;47.814;11.134;2024-03-22T15:37:39;22.30;27.30
1812;DHT22;904;47.814;11.134;2024-03-22T15:40:08;22.20;27.90
1812;DHT22;904;47.814;11.134;2024-03-22T15:42:34;22.20;28.00
1812;DHT22;904;47.814;11.134;2024-03-22T15:45:01;22.20;28.60
1812;DHT22;904;47.814;11.134;2024-03-22T15:47:29;22.20;29.50
1812;DHT22;904;47.814;11.134;2024-03-22T15:49:56;22.20;29.80
1812;DHT22;904;47.814;11.134;2024-03-22T15:52:22;22.10;28.60
1812;DHT22;904;47.814;11.134;2024-03-22T15:54:49;22.10;28.60
1812;DHT22;904;47.814;11.134;2024-03-22T15:57:17;22.00;28.70
1812;DHT22;904;47.814;11.134;2024-03-22T15:59:44;22.00;29.00
1812;DHT22;904;47.814;11.134;2024-03-22T16:02:12;22.00;28.70
1812;DHT22;904;47.814;11.134;2024-03-22T16:04:39;21.90;29.00
1812;DHT22;904;47.814;11.134;2024-03-22T16:07:05;21.80;29.70
1812;DHT22;904;47.814;11.134;2024-03-22T16:09:32;21.80;30.20
1812;DHT22;904;47.814;11.134;2024-03-22T16:12:00;21.70;29.80
1812;DHT22;904;47.814;11.134;2024-03-22T16:14:29;21.60;29.40
1812;DHT22;904;47.814;11.134;2024-03-22T16:16:55;21.60;29.00
1812;DHT22;904;47.814;11.134;2024-03-22T16:19:22;21.50;28.70
1812;DHT22;904;47.814;11.134;2024-03-22T16:21:47;21.50;29.00
1812;DHT22;904;47.814;11.134;2024-03-22T16:24:15;21.40;29.10
1812;DHT22;904;47.814;11.134;2024-03-22T16:26:42;21.40;29.20
1812;DHT22;904;47.814;11.134;2024-03-22T16:29:09;21.30;29.40
1812;DHT22;904;47.814;11.134;2024-03-22T16:31:37;21.20;29.10
1812;DHT22;904;47.814;11.134;2024-03-22T16:34:04;21.20;29.50
1812;DHT22;904;47.814;11.134;2024-03-22T16:36:30;21.10;29.10
1812;DHT22;904;47.814;11.134;2024-03-22T16:38:58;21.00;29.20
1812;DHT22;904;47.814;11.134;2024-03-22T16:41:24;21.00;28.70
1812;DHT22;904;47.814;11.134;2024-03-22T16:43:51;20.80;28.90
1812;DHT22;904;47.814;11.134;2024-03-22T16:46:17;20.70;29.30
1812;DHT22;904;47.814;11.134;2024-03-22T16:48:45;20.60;30.10
1812;DHT22;904;47.814;11.134;2024-03-22T16:51:11;20.60;29.70
1812;DHT22;904;47.814;11.134;2024-03-22T16:53:38;20.50;29.70
1812;DHT22;904;47.814;11.134;2024-03-22T16:56:04;20.40;29.20
1812;DHT22;904;47.814;11.134;2024-03-22T16:58:31;20.40;29.60
1812;DHT22;904;47.814;11.134;2024-03-22T17:01:02;20.30;29.90
1812;DHT22;904;47.814;11.134;2024-03-22T17:03:29;20.20;29.90
1812;DHT22;904;47.814;11.134;2024-03-22T17:05:57;20.20;30.00
1812;DHT22;904;47.814;11.134;2024-03-22T17:08:24;20.10;30.10
1812;DHT22;904;47.814;11.134;2024-03-22T17:10:49;20.00;30.20
1812;DHT22;904;47.814;11.134;2024-03-22T17:13:21;20.00;31.00
1812;DHT22;904;47.814;11.134;2024-03-22T17:15:47;19.90;31.70
1812;DHT22;904;47.814;11.134;2024-03-22T17:18:14;19.80;32.30
1812;DHT22;904;47.814;11.134;2024-03-22T17:20:40;19.80;33.30
1812;DHT22;904;47.814;11.134;2024-03-22T17:23:09;19.80;33.60
1812;DHT22;904;47.814;11.134;2024-03-22T17:25:35;19.70;34.10
1812;DHT22;904;47.814;11.134;2024-03-22T17:28:02;19.70;34.80
1812;DHT22;904;47.814;11.134;2024-03-22T17:30:28;19.50;35.20
1812;DHT22;904;47.814;11.134;2024-03-22T17:32:55;19.40;35.70
1812;DHT22;904;47.814;11.134;2024-03-22T17:35:21;19.30;36.60
1812;DHT22;904;47.814;11.134;2024-03-22T17:37:48;19.20;37.30
1812;DHT22;904;47.814;11.134;2024-03-22T17:40:15;19.10;37.70
1812;DHT22;904;47.814;11.134;2024-03-22T17:42:42;18.90;38.80
1812;DHT22;904;47.814;11.134;2024-03-22T17:45:09;18.80;39.00
1812;DHT22;904;47.814;11.134;2024-03-22T17:47:36;18.70;38.80
1812;DHT22;904;47.814;11.134;2024-03-22T17:50:02;18.50;39.20
1812;DHT22;904;47.814;11.134;2024-03-22T17:52:29;18.40;39.10
1812;DHT22;904;47.814;11.134;2024-03-22T17:54:55;18.20;39.40
1812;DHT22;904;47.814;11.134;2024-03-22T17:57:24;18.00;39.50
1812;DHT22;904;47.814;11.134;2024-03-22T17:59:51;17.90;40.40
1812;DHT22;904;47.814;11.134;2024-03-22T18:02:18;17.80;40.40
1812;DHT22;904;47.814;11.134;2024-03-22T18:04:44;17.70;40.90
1812;DHT22;904;47.814;11.134;2024-03-22T18:07:11;17.60;41.40
1812;DHT22;904;47.814;11.134;2024-03-22T18:09:37;17.50;41.80
1812;DHT22;904;47.814;11.134;2024-03-22T18:12:04;17.40;42.10
1812;DHT22;904;47.814;11.134;2024-03-22T18:14:32;17.30;42.40
1812;DHT22;904;47.814;11.134;2024-03-22T18:16:59;17.20;42.40
1812;DHT22;904;47.814;11.134;2024-03-22T18:19:27;17.20;42.90
1812;DHT22;904;47.814;11.134;2024-03-22T18:21:54;17.20;43.10
1812;DHT22;904;47.814;11.134;2024-03-22T18:24:20;17.20;43.20
1812;DHT22;904;47.814;11.134;2024-03-22T18:26:47;17.10;43.50
1812;DHT22;904;47.814;11.134;2024-03-22T18:29:13;17.10;43.80
1812;DHT22;904;47.814;11.134;2024-03-22T18:31:41;17.10;43.80
1812;DHT22;904;47.814;11.134;2024-03-22T18:34:07;17.10;43.60
1812;DHT22;904;47.814;11.134;2024-03-22T18:37:00;17.10;43.40
1812;DHT22;904;47.814;11.134;2024-03-22T18:39:26;17.00;44.00
1812;DHT22;904;47.814;11.134;2024-03-22T18:41:53;17.00;44.30
1812;DHT22;904;47.814;11.134;2024-03-22T18:44:19;16.90;44.40
1812;DHT22;904;47.814;11.134;2024-03-22T18:46:47;16.90;44.70
1812;DHT22;904;47.814;11.134;2024-03-22T18:49:13;16.90;44.90
1812;DHT22;904;47.814;11.134;2024-03-22T18:51:40;16.80;44.70
1812;DHT22;904;47.814;11.134;2024-03-22T18:54:06;16.80;45.10
1812;DHT22;904;47.814;11.134;2024-03-22T18:56:35;16.70;45.50
1812;DHT22;904;47.814;11.134;2024-03-22T18:59:01;16.60;45.60
1812;DHT22;904;47.814;11.134;2024-03-22T19:01:28;16.60;46.00
1812;DHT22;904;47.814;11.134;2024-03-22T19:07:17;16.40;46.50
1812;DHT22;904;47.814;11.134;2024-03-22T19:09:52;16.40;46.80
1812;DHT22;904;47.814;11.134;2024-03-22T19:12:18;16.40;46.60
1812;DHT22;904;47.814;11.134;2024-03-22T19:14:47;16.30;46.80
1812;DHT22;904;47.814;11.134;2024-03-22T19:23:59;15.80;47.70
1812;DHT22;904;47.814;11.134;2024-03-22T19:26:25;15.70;48.30
1812;DHT22;904;47.814;11.134;2024-03-22T19:28:51;15.60;48.70
1812;DHT22;904;47.814;11.134;2024-03-22T19:31:18;15.50;48.90
1812;DHT22;904;47.814;11.134;2024-03-22T19:33:44;15.50;49.10
1812;DHT22;904;47.814;11.134;2024-03-22T19:36:12;15.60;50.00
1812;DHT22;904;47.814;11.134;2024-03-22T19:38:38;15.50;49.70